createdAt,value
2023-12-23T00:00:39.633Z,3.40
2023-12-23T00:03:13.604Z,2.93
2023-12-23T00:05:47.599Z,3.13
2023-12-23T00:08:15.664Z,2.80
2023-12-23T00:10:50.517Z,2.47
2023-12-23T00:13:18.345Z,3.17
2023-12-23T00:15:53.564Z,3.67
2023-12-23T00:18:21.814Z,3.13
2023-12-23T00:20:56.699Z,2.97
2023-12-23T00:23:37.559Z,2.33
2023-12-23T00:26:11.670Z,2.37
2023-12-23T00:28:45.563Z,2.50
2023-12-23T00:31:19.550Z,2.43
2023-12-23T00:33:55.644Z,2.40
2023-12-23T00:36:23.534Z,2.50
2023-12-23T00:38:57.644Z,2.67
2023-12-23T00:41:25.417Z,2.80
2023-12-23T00:43:53.096Z,2.20
2023-12-23T00:46:28.542Z,2.27
2023-12-23T00:48:56.594Z,2.47
2023-12-23T00:51:30.544Z,2.30
2023-12-23T00:53:58.336Z,2.07
2023-12-23T00:56:32.510Z,1.67
2023-12-23T00:59:00.342Z,2.20
2023-12-23T01:01:35.759Z,2.27
2023-12-23T01:04:03.435Z,2.43
2023-12-23T01:06:37.538Z,2.80
2023-12-23T01:09:05.646Z,3.30
2023-12-23T01:11:39.521Z,2.60
2023-12-23T01:14:07.631Z,2.50
2023-12-23T01:16:41.537Z,2.53
2023-12-23T01:19:09.222Z,3.10
2023-12-23T01:21:44.489Z,3.13
2023-12-23T01:24:25.488Z,3.30
2023-12-23T01:27:00.521Z,3.13
2023-12-23T01:29:28.146Z,3.77
2023-12-23T01:32:02.614Z,3.80
2023-12-23T01:34:36.563Z,4.27
2023-12-23T01:37:10.479Z,3.83
2023-12-23T01:39:44.535Z,3.93
2023-12-23T01:42:18.563Z,3.83
2023-12-23T01:44:46.134Z,3.30
2023-12-23T01:47:20.662Z,2.80
2023-12-23T01:49:49.828Z,2.77
2023-12-23T01:52:18.042Z,2.50
2023-12-23T01:54:52.483Z,3.13
2023-12-23T01:57:26.520Z,3.30
2023-12-23T02:00:01.542Z,3.03
2023-12-23T02:02:30.211Z,3.27
2023-12-23T02:05:05.583Z,2.73
2023-12-23T02:07:36.588Z,2.03
2023-12-23T02:10:11.472Z,2.17
2023-12-23T02:13:05.706Z,2.27
2023-12-23T02:15:48.492Z,2.10
2023-12-23T02:18:16.292Z,1.83
2023-12-23T02:20:54.563Z,1.87
2023-12-23T02:23:35.550Z,2.37
2023-12-23T02:26:18.576Z,1.87
2023-12-23T02:28:52.839Z,2.60
2023-12-23T02:31:30.544Z,2.53
2023-12-23T02:34:06.557Z,2.83
2023-12-23T02:36:40.491Z,3.60
2023-12-23T02:39:08.269Z,3.20
2023-12-23T02:41:42.522Z,3.60
2023-12-23T02:44:16.643Z,3.43
2023-12-23T02:46:50.612Z,2.80
2023-12-23T02:49:24.499Z,2.67
2023-12-23T02:51:53.426Z,3.00
2023-12-23T02:54:27.558Z,2.83
2023-12-23T02:56:55.160Z,3.23
2023-12-23T02:59:29.601Z,3.20
2023-12-23T03:01:57.307Z,3.23
2023-12-23T03:04:31.527Z,2.90
2023-12-23T03:07:05.535Z,3.00
2023-12-23T03:09:36.231Z,3.23
2023-12-23T03:12:04.184Z,3.47
2023-12-23T03:14:38.525Z,2.93
2023-12-23T03:17:06.312Z,2.90
2023-12-23T03:19:40.512Z,2.80
2023-12-23T03:22:08.457Z,3.20
2023-12-23T03:24:42.567Z,3.53
2023-12-23T03:27:16.528Z,3.27
2023-12-23T03:29:50.549Z,3.23
2023-12-23T03:32:18.213Z,2.97
2023-12-23T03:34:45.976Z,3.47
2023-12-23T03:37:20.555Z,3.00
2023-12-23T03:39:54.487Z,2.77
2023-12-23T03:42:28.592Z,2.57
2023-12-23T03:44:56.200Z,3.23
2023-12-23T03:47:30.570Z,3.40
2023-12-23T03:49:58.166Z,3.10
2023-12-23T03:52:32.560Z,3.30
2023-12-23T03:55:00.280Z,3.20
2023-12-23T03:57:34.558Z,2.90
2023-12-23T04:00:02.560Z,3.10
2023-12-23T04:02:36.551Z,3.07
2023-12-23T04:05:04.587Z,3.73
2023-12-23T04:07:38.561Z,2.60
2023-12-23T04:10:06.776Z,2.57
2023-12-23T04:12:47.768Z,2.60
2023-12-23T04:15:16.074Z,2.30
2023-12-23T04:17:50.700Z,2.40
2023-12-23T04:20:18.467Z,2.17
2023-12-23T04:22:59.642Z,3.03
2023-12-23T04:25:33.592Z,1.70
2023-12-23T04:28:07.809Z,1.77
2023-12-23T04:30:36.059Z,1.70
2023-12-23T04:33:10.613Z,1.70
2023-12-23T04:35:44.585Z,1.40
2023-12-23T04:38:18.626Z,1.43
2023-12-23T04:40:46.317Z,2.00
2023-12-23T04:43:14.123Z,1.43
2023-12-23T04:45:48.557Z,1.37
2023-12-23T04:48:16.191Z,1.57
2023-12-23T04:50:50.589Z,1.17
2023-12-23T04:53:18.673Z,1.20
2023-12-23T04:55:46.358Z,1.20
2023-12-23T04:58:20.531Z,1.57
2023-12-23T05:00:48.801Z,1.00
2023-12-23T05:03:23.546Z,1.00
2023-12-23T05:05:57.547Z,0.90
2023-12-23T05:08:31.598Z,0.70
2023-12-23T05:10:59.383Z,0.70
2023-12-23T05:13:33.574Z,0.60
2023-12-23T05:16:07.554Z,0.60
2023-12-23T05:18:42.713Z,0.80
2023-12-23T05:21:17.539Z,0.70
2023-12-23T05:23:51.524Z,0.43
2023-12-23T05:26:34.567Z,0.70
2023-12-23T05:29:13.830Z,0.60
2023-12-23T05:31:41.356Z,0.70
2023-12-23T05:34:15.924Z,0.93
2023-12-23T05:36:49.816Z,0.63
2023-12-23T05:39:23.834Z,0.80
2023-12-23T05:41:57.822Z,0.90
2023-12-23T05:44:31.824Z,0.60
2023-12-23T05:47:08.020Z,0.70
2023-12-23T05:49:35.522Z,0.63
2023-12-23T05:52:09.812Z,0.60
2023-12-23T05:54:43.914Z,0.60
2023-12-23T05:57:11.999Z,0.80
2023-12-23T05:59:45.869Z,0.77
2023-12-23T06:02:22.837Z,0.90
2023-12-23T06:04:56.789Z,0.57
2023-12-23T06:07:24.505Z,0.80
2023-12-23T06:09:58.778Z,0.70
2023-12-23T06:12:27.206Z,0.80
2023-12-23T06:15:05.778Z,0.90
2023-12-23T06:17:42.220Z,0.70
2023-12-23T06:20:10.605Z,0.53
2023-12-23T06:22:44.228Z,0.53
2023-12-23T06:25:25.288Z,0.60
2023-12-23T06:28:19.205Z,0.40
2023-12-23T06:30:55.412Z,0.60
2023-12-23T06:33:23.651Z,0.70
2023-12-23T06:36:05.289Z,1.10
2023-12-23T06:38:35.362Z,0.90
2023-12-23T06:41:11.327Z,1.10
2023-12-23T06:43:52.197Z,0.73
2023-12-23T06:46:27.280Z,0.50
2023-12-23T06:48:55.601Z,0.67
2023-12-23T06:51:30.250Z,0.70
2023-12-23T06:53:58.310Z,0.53
2023-12-23T06:56:32.289Z,0.40
2023-12-23T06:59:02.630Z,0.40
2023-12-23T07:01:47.381Z,0.30
2023-12-23T07:04:22.457Z,0.67
2023-12-23T07:06:58.377Z,0.53
2023-12-23T07:09:33.341Z,0.60
2023-12-23T07:12:01.362Z,0.80
2023-12-23T07:14:36.333Z,0.53
2023-12-23T07:17:05.999Z,1.00
2023-12-23T07:19:40.524Z,1.10
2023-12-23T07:22:15.642Z,0.80
2023-12-23T07:24:50.437Z,0.70
2023-12-23T07:27:25.383Z,0.63
2023-12-23T07:29:53.429Z,0.90
2023-12-23T07:32:28.682Z,0.80
2023-12-23T07:35:03.337Z,0.93
2023-12-23T07:37:38.318Z,0.33
2023-12-23T07:40:14.393Z,0.30
2023-12-23T07:42:42.735Z,0.40
2023-12-23T07:45:19.335Z,0.33
2023-12-23T07:47:48.407Z,0.53
2023-12-23T07:50:23.394Z,0.50
2023-12-23T07:52:53.471Z,0.37
2023-12-23T07:55:32.039Z,0.50
2023-12-23T07:58:00.878Z,0.70
2023-12-23T08:00:35.367Z,0.50
2023-12-23T08:03:10.443Z,0.57
2023-12-23T08:05:44.363Z,0.70
2023-12-23T08:08:18.661Z,0.40
2023-12-23T08:10:53.806Z,0.50
2023-12-23T08:13:22.242Z,0.40
2023-12-23T08:15:59.827Z,0.30
2023-12-23T08:18:34.929Z,0.30
2023-12-23T08:21:11.855Z,0.10
2023-12-23T08:23:53.806Z,0.30
2023-12-23T08:26:21.841Z,0.20
2023-12-23T08:28:55.858Z,0.20
2023-12-23T08:31:26.165Z,0.30
2023-12-23T08:34:03.549Z,0.30
2023-12-23T08:36:31.442Z,0.30
2023-12-23T08:39:06.437Z,0.43
2023-12-23T08:41:36.893Z,0.20
2023-12-23T08:44:12.395Z,0.23
2023-12-23T08:46:40.812Z,0.30
2023-12-23T08:49:15.597Z,0.20
2023-12-23T08:51:50.337Z,0.10
2023-12-23T08:54:18.076Z,0.50
2023-12-23T08:56:53.367Z,0.20
2023-12-23T08:59:23.836Z,0.20
2023-12-23T09:02:01.351Z,0.20
2023-12-23T09:04:30.346Z,0.20
2023-12-23T09:07:06.210Z,0.13
2023-12-23T09:09:37.748Z,0.27
2023-12-23T09:12:13.183Z,0.30
2023-12-23T09:14:50.713Z,0.20
2023-12-23T09:17:24.260Z,0.20
2023-12-23T09:20:00.686Z,0.30
2023-12-23T09:22:28.943Z,0.10
2023-12-23T09:25:10.506Z,0.20
2023-12-23T09:27:45.579Z,0.30
2023-12-23T09:30:20.625Z,0.00
2023-12-23T09:32:55.625Z,0.20
2023-12-23T09:35:32.948Z,0.20
2023-12-23T09:38:06.936Z,0.20
2023-12-23T09:40:41.944Z,0.00
2023-12-23T09:43:13.605Z,0.20
2023-12-23T09:45:49.831Z,0.07
2023-12-23T09:48:29.816Z,0.00
2023-12-23T09:51:04.680Z,0.70
2023-12-23T09:53:47.997Z,0.07
2023-12-23T09:56:22.785Z,0.20
2023-12-23T09:58:51.458Z,0.00
2023-12-23T10:01:19.472Z,0.20
2023-12-23T10:03:54.847Z,0.20
2023-12-23T10:06:24.382Z,0.10
2023-12-23T10:08:58.776Z,0.07
2023-12-23T10:11:37.702Z,0.10
2023-12-23T10:14:06.279Z,0.10
2023-12-23T10:16:48.455Z,0.10
2023-12-23T10:19:23.352Z,0.10
2023-12-23T10:21:58.940Z,0.10
2023-12-23T10:24:44.401Z,0.30
2023-12-23T10:27:28.298Z,0.23
2023-12-23T10:30:00.619Z,0.10
2023-12-23T10:32:39.365Z,0.20
2023-12-23T10:35:15.825Z,0.10
2023-12-23T10:37:51.314Z,0.20
2023-12-23T10:40:32.362Z,0.20
2023-12-23T10:43:09.321Z,0.30
2023-12-23T10:45:39.183Z,0.10
2023-12-23T10:48:16.339Z,0.23
2023-12-23T10:50:57.741Z,0.07
2023-12-23T10:53:28.259Z,0.30
2023-12-23T10:56:02.513Z,1.07
2023-12-23T10:58:39.413Z,0.10
2023-12-23T11:01:19.255Z,0.70
2023-12-23T11:04:01.681Z,0.20
2023-12-23T11:06:35.295Z,0.23
2023-12-23T11:09:12.328Z,0.20
2023-12-23T11:11:43.620Z,0.20
2023-12-23T11:14:12.155Z,0.07
2023-12-23T11:16:47.417Z,0.10
2023-12-23T11:19:15.365Z,0.10
2023-12-23T11:21:51.385Z,0.10
2023-12-23T11:24:34.684Z,0.20
2023-12-23T11:27:11.725Z,0.17
2023-12-23T11:29:47.681Z,0.20
2023-12-23T11:32:15.927Z,0.20
2023-12-23T11:34:52.753Z,0.13
2023-12-23T11:37:57.409Z,0.10
2023-12-23T11:40:32.687Z,0.10
2023-12-23T11:43:01.033Z,0.10
2023-12-23T11:45:35.637Z,0.30
2023-12-23T11:48:03.833Z,0.07
2023-12-23T11:50:37.750Z,0.20
2023-12-23T11:53:12.876Z,0.10
2023-12-23T11:55:50.291Z,0.20
2023-12-23T11:58:20.726Z,0.13
2023-12-23T12:01:01.802Z,0.20
2023-12-23T12:03:30.761Z,0.73
2023-12-23T12:06:11.093Z,0.20
2023-12-23T12:08:45.777Z,0.00
2023-12-23T12:11:14.145Z,0.67
2023-12-23T12:13:51.760Z,0.20
2023-12-23T12:16:26.711Z,1.37
2023-12-23T12:19:00.910Z,0.40
2023-12-23T12:21:28.950Z,1.50
2023-12-23T12:24:10.721Z,0.23
2023-12-23T12:26:54.768Z,0.57
2023-12-23T12:29:29.754Z,1.13
2023-12-23T12:32:07.800Z,0.63
2023-12-23T12:34:50.785Z,0.40
2023-12-23T12:37:25.713Z,0.30
2023-12-23T12:40:03.554Z,0.73
2023-12-23T12:42:43.788Z,0.10
2023-12-23T12:45:13.267Z,0.30
2023-12-23T12:47:48.787Z,0.20
2023-12-23T12:50:26.776Z,0.87
2023-12-23T12:53:09.783Z,0.00
2023-12-23T12:55:43.701Z,0.33
2023-12-23T12:58:14.344Z,0.30
2023-12-23T13:00:48.755Z,0.40
2023-12-23T13:03:16.633Z,0.10
2023-12-23T13:05:54.136Z,0.23
2023-12-23T13:08:22.195Z,0.00
2023-12-23T13:10:50.026Z,0.10
2023-12-23T13:13:27.008Z,0.10
2023-12-23T13:15:55.212Z,0.17
2023-12-23T13:18:42.757Z,0.30
2023-12-23T13:21:18.030Z,0.50
2023-12-23T13:24:00.048Z,0.20
2023-12-23T13:26:35.207Z,0.00
2023-12-23T13:29:11.057Z,0.23
2023-12-23T13:31:39.043Z,0.20
2023-12-23T13:34:14.118Z,0.00
2023-12-23T13:36:42.132Z,0.83
2023-12-23T13:39:18.003Z,0.40
2023-12-23T13:41:46.227Z,1.23
2023-12-23T13:44:21.001Z,0.20
2023-12-23T13:46:56.985Z,0.30
2023-12-23T13:49:32.182Z,0.10
2023-12-23T13:52:03.509Z,0.53
2023-12-23T13:54:38.976Z,0.20
2023-12-23T13:57:13.047Z,0.70
2023-12-23T13:59:49.813Z,0.10
2023-12-23T14:02:25.043Z,0.40
2023-12-23T14:05:07.054Z,0.10
2023-12-23T14:07:49.031Z,0.23
2023-12-23T14:10:24.056Z,0.20
2023-12-23T14:12:58.955Z,0.30
2023-12-23T14:15:32.979Z,0.20
2023-12-23T14:18:04.842Z,0.30
2023-12-23T14:20:40.020Z,0.43
2023-12-23T14:23:10.732Z,0.10
2023-12-23T14:25:52.035Z,0.33
2023-12-23T14:28:20.392Z,0.30
2023-12-23T14:30:55.065Z,0.33
2023-12-23T14:33:30.110Z,0.33
2023-12-23T14:36:05.035Z,0.50
2023-12-23T14:38:33.164Z,1.23
2023-12-23T14:41:09.111Z,0.10
2023-12-23T14:43:44.095Z,0.10
2023-12-23T14:46:13.186Z,0.20
2023-12-23T14:48:48.069Z,0.10
2023-12-23T14:51:16.183Z,0.10
2023-12-23T14:53:51.996Z,0.10
2023-12-23T14:56:20.241Z,0.10
2023-12-23T14:58:48.595Z,0.13
2023-12-23T15:01:22.966Z,0.20
2023-12-23T15:03:59.006Z,0.33
2023-12-23T15:06:33.029Z,0.17
2023-12-23T15:09:08.077Z,0.10
2023-12-23T15:11:43.064Z,0.10
2023-12-23T15:14:11.710Z,0.20
2023-12-23T15:16:46.104Z,0.30
2023-12-23T15:19:14.072Z,0.30
2023-12-23T15:21:43.247Z,1.07
2023-12-23T15:24:18.153Z,0.17
2023-12-23T15:27:01.303Z,0.30
2023-12-23T15:29:40.418Z,0.50
2023-12-23T15:32:08.982Z,0.37
2023-12-23T15:34:43.231Z,0.77
2023-12-23T15:37:17.561Z,0.30
2023-12-23T15:39:52.477Z,0.40
2023-12-23T15:42:27.299Z,0.50
2023-12-23T15:44:55.129Z,0.57
2023-12-23T15:47:29.272Z,0.47
2023-12-23T15:49:57.899Z,0.30
2023-12-23T15:52:32.219Z,0.33
2023-12-23T15:54:59.949Z,0.60
2023-12-23T15:57:36.266Z,0.63
2023-12-23T16:00:04.269Z,0.67
2023-12-23T16:02:44.466Z,0.70
2023-12-23T16:05:23.605Z,0.50
2023-12-23T16:08:04.554Z,2.00
2023-12-23T16:10:33.584Z,0.60
2023-12-23T16:13:07.644Z,0.73
2023-12-23T16:15:35.393Z,0.50
2023-12-23T16:18:11.755Z,0.90
2023-12-23T16:20:39.741Z,0.33
2023-12-23T16:23:13.672Z,0.60
2023-12-23T16:25:54.682Z,0.70
2023-12-23T16:28:28.602Z,0.67
2023-12-23T16:31:02.678Z,0.93
2023-12-23T16:33:36.772Z,0.43
2023-12-23T16:36:11.706Z,1.80
2023-12-23T16:38:39.621Z,0.30
2023-12-23T16:41:17.667Z,0.50
2023-12-23T16:43:46.870Z,0.60
2023-12-23T16:46:21.650Z,0.13
2023-12-23T16:48:51.243Z,0.63
2023-12-23T16:51:34.844Z,0.53
2023-12-23T16:54:02.989Z,0.80
2023-12-23T16:56:37.675Z,0.70
2023-12-23T16:59:08.434Z,0.47
2023-12-23T17:01:43.651Z,0.87
2023-12-23T17:04:11.421Z,0.70
2023-12-23T17:06:47.621Z,0.40
2023-12-23T17:09:15.404Z,0.37
2023-12-23T17:11:50.488Z,0.30
2023-12-23T17:14:23.884Z,0.30
2023-12-23T17:17:03.547Z,0.37
2023-12-23T17:19:32.256Z,1.40
2023-12-23T17:22:06.671Z,0.40
2023-12-23T17:24:41.692Z,0.47
2023-12-23T17:27:16.858Z,0.30
2023-12-23T17:29:55.785Z,0.40
2023-12-23T17:32:33.853Z,0.60
2023-12-23T17:35:08.731Z,0.43
2023-12-23T17:37:43.782Z,0.47
2023-12-23T17:40:21.399Z,0.50
2023-12-23T17:42:50.235Z,0.37
2023-12-23T17:45:25.374Z,0.30
2023-12-23T17:47:53.100Z,0.30
2023-12-23T17:50:21.054Z,0.50
2023-12-23T17:52:55.468Z,0.27
2023-12-23T17:55:31.407Z,0.47
2023-12-23T17:57:59.858Z,0.10
2023-12-23T18:00:34.545Z,0.20
2023-12-23T18:03:09.432Z,0.30
2023-12-23T18:05:37.408Z,0.30
2023-12-23T18:08:13.422Z,0.30
2023-12-23T18:10:41.227Z,0.40
2023-12-23T18:13:18.446Z,0.33
2023-12-23T18:15:53.549Z,0.40
2023-12-23T18:18:27.453Z,0.40
2023-12-23T18:21:02.413Z,0.30
2023-12-23T18:23:30.162Z,0.70
2023-12-23T18:26:12.522Z,0.20
2023-12-23T18:28:40.457Z,0.30
2023-12-23T18:31:08.759Z,0.20
2023-12-23T18:33:44.522Z,0.20
2023-12-23T18:36:18.410Z,0.30
2023-12-23T18:38:56.494Z,0.20
2023-12-23T18:41:25.556Z,0.30
2023-12-23T18:44:00.405Z,0.13
2023-12-23T18:46:29.857Z,0.30
2023-12-23T18:49:04.457Z,0.20
2023-12-23T18:51:40.469Z,0.13
2023-12-23T18:54:12.404Z,0.20
2023-12-23T18:56:46.424Z,0.20
2023-12-23T18:59:17.093Z,0.17
2023-12-23T19:01:51.387Z,0.50
2023-12-23T19:04:25.388Z,0.33
2023-12-23T19:06:59.367Z,0.27
2023-12-23T19:09:33.422Z,0.40
2023-12-23T19:12:08.424Z,0.33
2023-12-23T19:14:43.467Z,0.80
2023-12-23T19:17:13.387Z,0.30
2023-12-23T19:19:42.413Z,0.60
2023-12-23T19:22:17.443Z,0.40
2023-12-23T19:24:52.490Z,0.20
2023-12-23T19:27:28.376Z,0.10
2023-12-23T19:30:03.411Z,0.20
2023-12-23T19:32:38.521Z,0.30
2023-12-23T19:35:15.576Z,0.30
2023-12-23T19:37:43.982Z,0.30
2023-12-23T19:40:19.426Z,0.40
2023-12-23T19:42:47.467Z,0.50
2023-12-23T19:45:16.341Z,0.50
2023-12-23T19:47:51.759Z,0.37
2023-12-23T19:50:27.453Z,0.40
2023-12-23T19:53:02.427Z,0.50
2023-12-23T19:55:30.326Z,0.47
2023-12-23T19:58:04.389Z,0.53
2023-12-23T20:00:43.424Z,0.60
2023-12-23T20:03:18.479Z,0.57
2023-12-23T20:05:52.558Z,0.30
2023-12-23T20:08:27.445Z,0.40
2023-12-23T20:10:55.236Z,0.47
2023-12-23T20:13:24.530Z,0.50
2023-12-23T20:15:58.426Z,0.30
2023-12-23T20:18:29.652Z,0.30
2023-12-23T20:21:04.381Z,0.40
2023-12-23T20:23:32.701Z,0.40
2023-12-23T20:26:14.480Z,0.30
2023-12-23T20:28:48.419Z,0.50
2023-12-23T20:31:17.275Z,0.40
2023-12-23T20:33:51.544Z,0.70
2023-12-23T20:36:25.433Z,0.50
2023-12-23T20:38:53.132Z,0.73
2023-12-23T20:41:27.464Z,0.70
2023-12-23T20:44:01.504Z,0.60
2023-12-23T20:46:29.170Z,0.60
2023-12-23T20:49:03.531Z,0.83
2023-12-23T20:51:31.639Z,0.60
2023-12-23T20:53:59.740Z,0.50
2023-12-23T20:56:33.466Z,0.60
2023-12-23T20:59:07.476Z,0.50
2023-12-23T21:01:41.400Z,0.60
2023-12-23T21:04:09.049Z,0.50
2023-12-23T21:06:43.466Z,0.50
2023-12-23T21:09:11.341Z,0.60
2023-12-23T21:11:45.446Z,0.80
2023-12-23T21:14:19.586Z,0.50
2023-12-23T21:16:55.762Z,0.80
2023-12-23T21:19:25.070Z,0.67
2023-12-23T21:21:59.435Z,0.70
2023-12-23T21:24:33.709Z,0.80
2023-12-23T21:27:14.408Z,0.83
2023-12-23T21:29:41.928Z,0.80
2023-12-23T21:32:09.605Z,0.90
2023-12-23T21:34:43.473Z,0.70
2023-12-23T21:37:11.351Z,0.63
2023-12-23T21:39:45.444Z,0.53
2023-12-23T21:42:13.822Z,0.53
2023-12-23T21:44:47.389Z,0.40
2023-12-23T21:47:15.005Z,0.40
2023-12-23T21:49:49.449Z,0.50
2023-12-23T21:52:17.538Z,0.50
2023-12-23T21:54:51.444Z,0.50
2023-12-23T21:57:25.451Z,0.50
2023-12-23T21:59:53.082Z,0.70
2023-12-23T22:02:27.549Z,0.70
2023-12-23T22:04:55.385Z,0.73
2023-12-23T22:07:29.456Z,0.93
2023-12-23T22:09:58.359Z,0.60
2023-12-23T22:12:25.928Z,0.63
2023-12-23T22:15:02.476Z,0.60
2023-12-23T22:17:36.505Z,0.53
2023-12-23T22:20:11.483Z,0.80
2023-12-23T22:22:39.163Z,0.70
2023-12-23T22:25:13.434Z,0.50
2023-12-23T22:27:47.507Z,0.87
2023-12-23T22:30:28.530Z,0.70
2023-12-23T22:33:02.544Z,0.70
2023-12-23T22:35:46.521Z,0.80
2023-12-23T22:38:21.447Z,0.90
2023-12-23T22:40:55.490Z,0.90
2023-12-23T22:43:30.399Z,0.90
2023-12-23T22:46:05.443Z,0.80
2023-12-23T22:48:39.595Z,0.80
2023-12-23T22:51:14.509Z,0.83
2023-12-23T22:53:42.470Z,0.80
2023-12-23T22:56:17.462Z,0.70
2023-12-23T22:58:51.413Z,0.90
2023-12-23T23:01:25.421Z,0.90
2023-12-23T23:03:55.791Z,0.90
2023-12-23T23:06:23.389Z,0.80
2023-12-23T23:08:57.433Z,0.60
2023-12-23T23:11:25.209Z,0.63
2023-12-23T23:13:52.853Z,0.70
2023-12-23T23:16:27.406Z,0.60
2023-12-23T23:19:01.616Z,0.60
2023-12-23T23:21:35.406Z,0.60
2023-12-23T23:24:10.465Z,0.70
2023-12-23T23:26:51.464Z,0.50
2023-12-23T23:29:19.091Z,0.70
2023-12-23T23:31:53.499Z,1.00
2023-12-23T23:34:21.077Z,0.83
2023-12-23T23:36:55.468Z,0.83
2023-12-23T23:39:23.205Z,0.80
2023-12-23T23:41:50.708Z,0.97
2023-12-23T23:44:25.477Z,0.80
2023-12-23T23:46:53.467Z,0.67
2023-12-23T23:49:27.600Z,1.07
2023-12-23T23:51:55.457Z,0.70
2023-12-23T23:54:23.107Z,0.50
2023-12-23T23:56:57.471Z,0.80
2023-12-23T23:59:25.041Z,0.70
